sensor_id;sensor_type;location;lat;lon;timestamp;P1;durP1;ratioP1;P2;durP2;ratioP2
10769;SDS011;5437;50.852;4.438;2023-02-12T00:01:55;12.63;;;11.32;;
10769;SDS011;5437;50.852;4.438;2023-02-12T00:04:21;13.85;;;11.60;;
10769;SDS011;5437;50.852;4.438;2023-02-12T00:06:47;12.35;;;11.15;;
10769;SDS011;5437;50.852;4.438;2023-02-12T00:09:13;12.73;;;11.43;;
10769;SDS011;5437;50.852;4.438;2023-02-12T00:11:40;13.20;;;11.85;;
10769;SDS011;5437;50.852;4.438;2023-02-12T00:14:06;12.95;;;11.70;;
10769;SDS011;5437;50.852;4.438;2023-02-12T00:16:32;13.48;;;12.07;;
10769;SDS011;5437;50.852;4.438;2023-02-12T00:18:59;14.57;;;13.07;;
10769;SDS011;5437;50.852;4.438;2023-02-12T00:21:25;14.25;;;12.75;;
10769;SDS011;5437;50.852;4.438;2023-02-12T00:23:51;13.50;;;12.13;;
10769;SDS011;5437;50.852;4.438;2023-02-12T00:26:19;12.77;;;11.48;;
10769;SDS011;5437;50.852;4.438;2023-02-12T00:28:45;12.90;;;11.60;;
10769;SDS011;5437;50.852;4.438;2023-02-12T00:31:13;14.93;;;12.25;;
10769;SDS011;5437;50.852;4.438;2023-02-12T00:33:39;14.30;;;12.90;;
10769;SDS011;5437;50.852;4.438;2023-02-12T00:36:06;13.73;;;12.30;;
10769;SDS011;5437;50.852;4.438;2023-02-12T00:38:32;13.85;;;12.50;;
10769;SDS011;5437;50.852;4.438;2023-02-12T00:40:59;13.70;;;12.30;;
10769;SDS011;5437;50.852;4.438;2023-02-12T00:43:25;14.02;;;12.63;;
10769;SDS011;5437;50.852;4.438;2023-02-12T00:45:51;14.45;;;12.95;;
10769;SDS011;5437;50.852;4.438;2023-02-12T00:48:17;15.13;;;13.50;;
10769;SDS011;5437;50.852;4.438;2023-02-12T00:50:43;14.25;;;12.70;;
10769;SDS011;5437;50.852;4.438;2023-02-12T00:53:09;14.80;;;13.20;;
10769;SDS011;5437;50.852;4.438;2023-02-12T00:55:36;15.40;;;13.77;;
10769;SDS011;5437;50.852;4.438;2023-02-12T00:58:02;14.45;;;12.95;;
10769;SDS011;5437;50.852;4.438;2023-02-12T01:00:28;14.00;;;12.60;;
10769;SDS011;5437;50.852;4.438;2023-02-12T01:02:54;15.50;;;13.52;;
10769;SDS011;5437;50.852;4.438;2023-02-12T01:05:20;14.75;;;13.18;;
10769;SDS011;5437;50.852;4.438;2023-02-12T01:07:50;14.98;;;13.48;;
10769;SDS011;5437;50.852;4.438;2023-02-12T01:10:16;14.80;;;13.25;;
10769;SDS011;5437;50.852;4.438;2023-02-12T01:12:42;15.57;;;13.70;;
10769;SDS011;5437;50.852;4.438;2023-02-12T01:15:08;14.82;;;13.23;;
10769;SDS011;5437;50.852;4.438;2023-02-12T01:17:35;14.63;;;13.07;;
10769;SDS011;5437;50.852;4.438;2023-02-12T01:20:01;14.93;;;13.52;;
10769;SDS011;5437;50.852;4.438;2023-02-12T01:22:29;15.30;;;13.75;;
10769;SDS011;5437;50.852;4.438;2023-02-12T01:24:55;15.90;;;14.30;;
10769;SDS011;5437;50.852;4.438;2023-02-12T01:27:21;16.95;;;15.27;;
10769;SDS011;5437;50.852;4.438;2023-02-12T01:29:47;17.02;;;15.38;;
10769;SDS011;5437;50.852;4.438;2023-02-12T01:32:13;16.85;;;15.35;;
10769;SDS011;5437;50.852;4.438;2023-02-12T01:34:39;17.40;;;15.68;;
10769;SDS011;5437;50.852;4.438;2023-02-12T01:37:05;18.75;;;16.92;;
10769;SDS011;5437;50.852;4.438;2023-02-12T01:39:32;18.35;;;16.35;;
10769;SDS011;5437;50.852;4.438;2023-02-12T01:41:58;18.48;;;16.60;;
10769;SDS011;5437;50.852;4.438;2023-02-12T01:44:27;17.90;;;16.08;;
10769;SDS011;5437;50.852;4.438;2023-02-12T01:46:56;19.02;;;17.02;;
10769;SDS011;5437;50.852;4.438;2023-02-12T01:51:54;19.00;;;17.02;;
10769;SDS011;5437;50.852;4.438;2023-02-12T01:54:22;19.35;;;17.35;;
10769;SDS011;5437;50.852;4.438;2023-02-12T01:56:49;19.30;;;17.30;;
10769;SDS011;5437;50.852;4.438;2023-02-12T01:59:16;19.77;;;17.77;;
10769;SDS011;5437;50.852;4.438;2023-02-12T02:01:43;19.52;;;17.63;;
10769;SDS011;5437;50.852;4.438;2023-02-12T02:04:14;20.58;;;17.88;;
10769;SDS011;5437;50.852;4.438;2023-02-12T02:06:43;20.35;;;17.90;;
10769;SDS011;5437;50.852;4.438;2023-02-12T02:09:10;20.90;;;18.38;;
10769;SDS011;5437;50.852;4.438;2023-02-12T02:11:37;21.58;;;19.08;;
10769;SDS011;5437;50.852;4.438;2023-02-12T02:14:22;21.50;;;19.20;;
10769;SDS011;5437;50.852;4.438;2023-02-12T02:24:56;21.27;;;19.05;;
10769;SDS011;5437;50.852;4.438;2023-02-12T02:32:47;20.25;;;18.15;;
10769;SDS011;5437;50.852;4.438;2023-02-12T02:35:21;22.77;;;19.00;;
10769;SDS011;5437;50.852;4.438;2023-02-12T02:40:25;20.17;;;17.98;;
10769;SDS011;5437;50.852;4.438;2023-02-12T02:42:56;22.25;;;18.85;;
10769;SDS011;5437;50.852;4.438;2023-02-12T02:45:25;21.60;;;19.05;;
10769;SDS011;5437;50.852;4.438;2023-02-12T02:50:19;20.15;;;18.05;;
10769;SDS011;5437;50.852;4.438;2023-02-12T02:52:49;20.38;;;17.98;;
10769;SDS011;5437;50.852;4.438;2023-02-12T02:55:17;15.20;;;13.60;;
10769;SDS011;5437;50.852;4.438;2023-02-12T02:57:45;15.25;;;13.65;;
10769;SDS011;5437;50.852;4.438;2023-02-12T03:00:13;14.32;;;12.88;;
10769;SDS011;5437;50.852;4.438;2023-02-12T03:02:41;13.93;;;12.45;;
10769;SDS011;5437;50.852;4.438;2023-02-12T03:05:15;15.55;;;13.93;;
10769;SDS011;5437;50.852;4.438;2023-02-12T03:07:45;16.75;;;15.02;;
10769;SDS011;5437;50.852;4.438;2023-02-12T03:10:19;16.42;;;14.73;;
10769;SDS011;5437;50.852;4.438;2023-02-12T03:12:57;17.38;;;15.57;;
10769;SDS011;5437;50.852;4.438;2023-02-12T03:15:49;17.30;;;15.48;;
10769;SDS011;5437;50.852;4.438;2023-02-12T03:18:18;18.58;;;16.58;;
10769;SDS011;5437;50.852;4.438;2023-02-12T03:20:46;18.88;;;16.95;;
10769;SDS011;5437;50.852;4.438;2023-02-12T03:23:15;17.42;;;15.55;;
10769;SDS011;5437;50.852;4.438;2023-02-12T03:28:22;19.08;;;17.08;;
10769;SDS011;5437;50.852;4.438;2023-02-12T03:37:12;20.02;;;17.05;;
10769;SDS011;5437;50.852;4.438;2023-02-12T03:39:34;19.98;;;17.30;;
10769;SDS011;5437;50.852;4.438;2023-02-12T03:42:02;19.55;;;17.45;;
10769;SDS011;5437;50.852;4.438;2023-02-12T03:47:15;18.85;;;16.80;;
10769;SDS011;5437;50.852;4.438;2023-02-12T03:49:59;19.90;;;17.52;;
10769;SDS011;5437;50.852;4.438;2023-02-12T03:52:27;21.30;;;17.75;;
10769;SDS011;5437;50.852;4.438;2023-02-12T03:54:54;21.35;;;17.55;;
10769;SDS011;5437;50.852;4.438;2023-02-12T03:57:20;19.42;;;17.33;;
10769;SDS011;5437;50.852;4.438;2023-02-12T03:59:47;18.98;;;16.98;;
10769;SDS011;5437;50.852;4.438;2023-02-12T04:02:14;19.90;;;17.63;;
10769;SDS011;5437;50.852;4.438;2023-02-12T04:04:40;18.83;;;16.80;;
10769;SDS011;5437;50.852;4.438;2023-02-12T04:07:06;19.98;;;17.27;;
10769;SDS011;5437;50.852;4.438;2023-02-12T04:09:32;19.80;;;17.70;;
10769;SDS011;5437;50.852;4.438;2023-02-12T04:14:30;18.40;;;16.42;;
10769;SDS011;5437;50.852;4.438;2023-02-12T04:17:03;20.27;;;17.00;;
10769;SDS011;5437;50.852;4.438;2023-02-12T04:19:39;20.02;;;17.55;;
10769;SDS011;5437;50.852;4.438;2023-02-12T04:22:31;20.40;;;17.60;;
10769;SDS011;5437;50.852;4.438;2023-02-12T04:30:20;20.77;;;17.70;;
10769;SDS011;5437;50.852;4.438;2023-02-12T04:35:25;20.35;;;17.42;;
10769;SDS011;5437;50.852;4.438;2023-02-12T04:40:25;20.80;;;18.05;;
10769;SDS011;5437;50.852;4.438;2023-02-12T04:42:51;20.05;;;17.05;;
10769;SDS011;5437;50.852;4.438;2023-02-12T04:45:19;20.83;;;17.98;;
10769;SDS011;5437;50.852;4.438;2023-02-12T04:47:47;21.45;;;18.00;;
10769;SDS011;5437;50.852;4.438;2023-02-12T04:50:13;22.55;;;19.15;;
10769;SDS011;5437;50.852;4.438;2023-02-12T04:52:39;21.85;;;18.52;;
10769;SDS011;5437;50.852;4.438;2023-02-12T04:55:05;21.63;;;17.83;;
10769;SDS011;5437;50.852;4.438;2023-02-12T04:57:31;21.58;;;18.42;;
10769;SDS011;5437;50.852;4.438;2023-02-12T04:59:57;22.05;;;18.63;;
10769;SDS011;5437;50.852;4.438;2023-02-12T05:02:23;22.05;;;18.52;;
10769;SDS011;5437;50.852;4.438;2023-02-12T05:04:49;20.40;;;18.20;;
10769;SDS011;5437;50.852;4.438;2023-02-12T05:07:15;21.77;;;18.75;;
10769;SDS011;5437;50.852;4.438;2023-02-12T05:09:41;22.98;;;18.42;;
10769;SDS011;5437;50.852;4.438;2023-02-12T05:12:07;22.60;;;19.58;;
10769;SDS011;5437;50.852;4.438;2023-02-12T05:14:33;24.48;;;19.17;;
10769;SDS011;5437;50.852;4.438;2023-02-12T05:16:59;22.92;;;19.27;;
10769;SDS011;5437;50.852;4.438;2023-02-12T05:19:25;22.05;;;19.17;;
10769;SDS011;5437;50.852;4.438;2023-02-12T05:21:51;22.20;;;19.25;;
10769;SDS011;5437;50.852;4.438;2023-02-12T05:24:17;22.05;;;19.52;;
10769;SDS011;5437;50.852;4.438;2023-02-12T05:26:43;22.98;;;19.52;;
10769;SDS011;5437;50.852;4.438;2023-02-12T05:29:09;23.05;;;19.55;;
10769;SDS011;5437;50.852;4.438;2023-02-12T05:31:35;22.27;;;19.17;;
10769;SDS011;5437;50.852;4.438;2023-02-12T05:34:01;23.55;;;19.05;;
10769;SDS011;5437;50.852;4.438;2023-02-12T05:36:27;24.65;;;19.83;;
10769;SDS011;5437;50.852;4.438;2023-02-12T05:38:55;25.92;;;20.27;;
10769;SDS011;5437;50.852;4.438;2023-02-12T05:41:22;25.73;;;19.55;;
10769;SDS011;5437;50.852;4.438;2023-02-12T05:43:49;23.40;;;20.15;;
10769;SDS011;5437;50.852;4.438;2023-02-12T05:46:15;23.25;;;19.17;;
10769;SDS011;5437;50.852;4.438;2023-02-12T05:48:42;23.95;;;19.13;;
10769;SDS011;5437;50.852;4.438;2023-02-12T05:51:15;23.88;;;18.65;;
10769;SDS011;5437;50.852;4.438;2023-02-12T05:53:41;24.67;;;19.50;;
10769;SDS011;5437;50.852;4.438;2023-02-12T05:56:14;24.33;;;20.42;;
10769;SDS011;5437;50.852;4.438;2023-02-12T05:58:42;23.45;;;20.05;;
10769;SDS011;5437;50.852;4.438;2023-02-12T06:01:15;25.58;;;20.60;;
10769;SDS011;5437;50.852;4.438;2023-02-12T06:03:42;24.17;;;19.45;;
10769;SDS011;5437;50.852;4.438;2023-02-12T06:06:08;24.40;;;20.13;;
10769;SDS011;5437;50.852;4.438;2023-02-12T06:08:35;23.27;;;19.45;;
10769;SDS011;5437;50.852;4.438;2023-02-12T06:11:02;25.45;;;20.80;;
10769;SDS011;5437;50.852;4.438;2023-02-12T06:13:29;26.70;;;21.05;;
10769;SDS011;5437;50.852;4.438;2023-02-12T06:15:55;25.30;;;21.27;;
10769;SDS011;5437;50.852;4.438;2023-02-12T06:18:21;25.50;;;20.17;;
10769;SDS011;5437;50.852;4.438;2023-02-12T06:20:47;24.48;;;20.60;;
10769;SDS011;5437;50.852;4.438;2023-02-12T06:23:13;27.98;;;21.88;;
10769;SDS011;5437;50.852;4.438;2023-02-12T06:25:40;25.88;;;21.05;;
10769;SDS011;5437;50.852;4.438;2023-02-12T06:28:06;25.75;;;21.58;;
10769;SDS011;5437;50.852;4.438;2023-02-12T06:30:35;26.55;;;22.15;;
10769;SDS011;5437;50.852;4.438;2023-02-12T06:33:01;27.48;;;21.95;;
10769;SDS011;5437;50.852;4.438;2023-02-12T06:35:27;26.35;;;20.98;;
10769;SDS011;5437;50.852;4.438;2023-02-12T06:37:53;26.92;;;21.38;;
10769;SDS011;5437;50.852;4.438;2023-02-12T06:40:19;26.23;;;20.95;;
10769;SDS011;5437;50.852;4.438;2023-02-12T06:42:45;24.83;;;19.80;;
10769;SDS011;5437;50.852;4.438;2023-02-12T06:45:11;25.15;;;19.35;;
10769;SDS011;5437;50.852;4.438;2023-02-12T06:47:37;25.27;;;20.67;;
10769;SDS011;5437;50.852;4.438;2023-02-12T06:50:03;24.58;;;20.23;;
10769;SDS011;5437;50.852;4.438;2023-02-12T06:52:29;26.48;;;20.52;;
10769;SDS011;5437;50.852;4.438;2023-02-12T06:54:55;25.95;;;19.88;;
10769;SDS011;5437;50.852;4.438;2023-02-12T06:57:21;25.30;;;20.35;;
10769;SDS011;5437;50.852;4.438;2023-02-12T06:59:48;25.90;;;20.75;;
10769;SDS011;5437;50.852;4.438;2023-02-12T07:02:14;27.33;;;21.58;;
10769;SDS011;5437;50.852;4.438;2023-02-12T07:04:40;28.45;;;21.80;;
10769;SDS011;5437;50.852;4.438;2023-02-12T07:07:06;27.00;;;20.40;;
10769;SDS011;5437;50.852;4.438;2023-02-12T07:09:32;28.85;;;21.70;;
10769;SDS011;5437;50.852;4.438;2023-02-12T07:11:58;27.40;;;20.77;;
10769;SDS011;5437;50.852;4.438;2023-02-12T07:14:24;27.20;;;21.30;;
10769;SDS011;5437;50.852;4.438;2023-02-12T07:16:52;26.88;;;21.63;;
10769;SDS011;5437;50.852;4.438;2023-02-12T07:19:18;28.15;;;21.67;;
10769;SDS011;5437;50.852;4.438;2023-02-12T07:21:45;25.85;;;20.00;;
10769;SDS011;5437;50.852;4.438;2023-02-12T07:24:11;27.15;;;21.90;;
10769;SDS011;5437;50.852;4.438;2023-02-12T07:26:38;25.98;;;21.52;;
10769;SDS011;5437;50.852;4.438;2023-02-12T07:29:04;25.67;;;20.35;;
10769;SDS011;5437;50.852;4.438;2023-02-12T07:31:30;26.40;;;21.33;;
10769;SDS011;5437;50.852;4.438;2023-02-12T07:33:57;26.55;;;20.35;;
10769;SDS011;5437;50.852;4.438;2023-02-12T07:36:23;26.70;;;21.05;;
10769;SDS011;5437;50.852;4.438;2023-02-12T07:38:49;25.75;;;20.77;;
10769;SDS011;5437;50.852;4.438;2023-02-12T07:41:22;26.65;;;21.88;;
10769;SDS011;5437;50.852;4.438;2023-02-12T07:43:52;27.02;;;21.77;;
10769;SDS011;5437;50.852;4.438;2023-02-12T07:46:22;27.27;;;22.08;;
10769;SDS011;5437;50.852;4.438;2023-02-12T07:48:53;27.75;;;21.63;;
10769;SDS011;5437;50.852;4.438;2023-02-12T07:51:19;29.92;;;21.65;;
10769;SDS011;5437;50.852;4.438;2023-02-12T07:53:46;27.63;;;21.13;;
10769;SDS011;5437;50.852;4.438;2023-02-12T07:56:19;28.27;;;22.08;;
10769;SDS011;5437;50.852;4.438;2023-02-12T07:58:46;28.17;;;22.15;;
10769;SDS011;5437;50.852;4.438;2023-02-12T08:01:17;28.15;;;21.73;;
10769;SDS011;5437;50.852;4.438;2023-02-12T08:03:44;27.42;;;21.73;;
10769;SDS011;5437;50.852;4.438;2023-02-12T08:06:12;29.35;;;21.85;;
10769;SDS011;5437;50.852;4.438;2023-02-12T08:08:38;29.08;;;21.92;;
10769;SDS011;5437;50.852;4.438;2023-02-12T08:11:07;28.23;;;21.38;;
10769;SDS011;5437;50.852;4.438;2023-02-12T08:13:34;25.45;;;20.67;;
10769;SDS011;5437;50.852;4.438;2023-02-12T08:16:04;27.45;;;21.80;;
10769;SDS011;5437;50.852;4.438;2023-02-12T08:18:31;28.08;;;21.45;;
10769;SDS011;5437;50.852;4.438;2023-02-12T08:21:03;26.65;;;21.60;;
10769;SDS011;5437;50.852;4.438;2023-02-12T08:23:30;27.65;;;21.77;;
10769;SDS011;5437;50.852;4.438;2023-02-12T08:26:09;27.90;;;21.13;;
10769;SDS011;5437;50.852;4.438;2023-02-12T08:28:36;25.55;;;21.00;;
10769;SDS011;5437;50.852;4.438;2023-02-12T08:31:03;26.73;;;20.98;;
10769;SDS011;5437;50.852;4.438;2023-02-12T08:33:30;27.17;;;20.45;;
10769;SDS011;5437;50.852;4.438;2023-02-12T08:36:00;27.08;;;20.73;;
10769;SDS011;5437;50.852;4.438;2023-02-12T08:38:26;26.13;;;20.38;;
10769;SDS011;5437;50.852;4.438;2023-02-12T08:40:52;25.90;;;20.45;;
10769;SDS011;5437;50.852;4.438;2023-02-12T08:43:19;25.80;;;21.17;;
10769;SDS011;5437;50.852;4.438;2023-02-12T08:45:45;25.58;;;20.80;;
10769;SDS011;5437;50.852;4.438;2023-02-12T08:48:11;25.92;;;20.42;;
10769;SDS011;5437;50.852;4.438;2023-02-12T08:50:37;27.80;;;21.73;;
10769;SDS011;5437;50.852;4.438;2023-02-12T08:53:03;25.83;;;20.70;;
10769;SDS011;5437;50.852;4.438;2023-02-12T08:55:30;26.52;;;20.50;;
10769;SDS011;5437;50.852;4.438;2023-02-12T08:57:56;28.95;;;21.17;;
10769;SDS011;5437;50.852;4.438;2023-02-12T09:00:22;26.63;;;20.45;;
10769;SDS011;5437;50.852;4.438;2023-02-12T09:02:48;29.75;;;21.48;;
10769;SDS011;5437;50.852;4.438;2023-02-12T09:05:14;27.13;;;22.27;;
10769;SDS011;5437;50.852;4.438;2023-02-12T09:07:40;27.25;;;21.63;;
10769;SDS011;5437;50.852;4.438;2023-02-12T09:10:06;28.00;;;20.75;;
10769;SDS011;5437;50.852;4.438;2023-02-12T09:12:32;25.58;;;20.85;;
10769;SDS011;5437;50.852;4.438;2023-02-12T09:14:58;29.45;;;21.35;;
10769;SDS011;5437;50.852;4.438;2023-02-12T09:17:24;27.83;;;20.75;;
10769;SDS011;5437;50.852;4.438;2023-02-12T09:19:52;27.17;;;20.50;;
10769;SDS011;5437;50.852;4.438;2023-02-12T09:22:18;26.48;;;20.85;;
10769;SDS011;5437;50.852;4.438;2023-02-12T09:24:44;26.00;;;20.83;;
10769;SDS011;5437;50.852;4.438;2023-02-12T09:27:10;30.88;;;22.40;;
10769;SDS011;5437;50.852;4.438;2023-02-12T09:29:36;29.15;;;21.25;;
10769;SDS011;5437;50.852;4.438;2023-02-12T09:32:02;29.00;;;22.58;;
10769;SDS011;5437;50.852;4.438;2023-02-12T09:34:33;28.13;;;20.58;;
10769;SDS011;5437;50.852;4.438;2023-02-12T09:36:59;28.15;;;20.88;;
10769;SDS011;5437;50.852;4.438;2023-02-12T09:39:26;39.28;;;29.17;;
10769;SDS011;5437;50.852;4.438;2023-02-12T09:44:28;26.52;;;20.58;;
10769;SDS011;5437;50.852;4.438;2023-02-12T09:47:07;27.05;;;20.50;;
10769;SDS011;5437;50.852;4.438;2023-02-12T09:52:16;24.02;;;18.92;;
10769;SDS011;5437;50.852;4.438;2023-02-12T09:54:43;25.35;;;19.95;;
10769;SDS011;5437;50.852;4.438;2023-02-12T09:57:43;27.08;;;20.50;;
10769;SDS011;5437;50.852;4.438;2023-02-12T10:00:04;25.63;;;19.58;;
10769;SDS011;5437;50.852;4.438;2023-02-12T10:02:30;26.80;;;19.27;;
10769;SDS011;5437;50.852;4.438;2023-02-12T10:04:58;23.92;;;18.92;;
10769;SDS011;5437;50.852;4.438;2023-02-12T10:15:57;26.38;;;18.90;;
10769;SDS011;5437;50.852;4.438;2023-02-12T10:23:59;23.52;;;17.58;;
10769;SDS011;5437;50.852;4.438;2023-02-12T10:28:56;22.98;;;17.27;;
10769;SDS011;5437;50.852;4.438;2023-02-12T10:31:28;24.65;;;17.90;;
10769;SDS011;5437;50.852;4.438;2023-02-12T10:33:55;23.38;;;17.52;;
10769;SDS011;5437;50.852;4.438;2023-02-12T10:41:32;20.73;;;17.15;;
10769;SDS011;5437;50.852;4.438;2023-02-12T10:44:00;25.98;;;18.85;;
10769;SDS011;5437;50.852;4.438;2023-02-12T10:46:28;23.10;;;17.42;;
10769;SDS011;5437;50.852;4.438;2023-02-12T10:48:55;22.95;;;17.63;;
10769;SDS011;5437;50.852;4.438;2023-02-12T10:51:28;24.48;;;18.08;;
10769;SDS011;5437;50.852;4.438;2023-02-12T10:54:29;23.80;;;18.05;;
10769;SDS011;5437;50.852;4.438;2023-02-12T10:56:45;26.30;;;18.65;;
10769;SDS011;5437;50.852;4.438;2023-02-12T10:59:12;25.27;;;18.63;;
10769;SDS011;5437;50.852;4.438;2023-02-12T11:01:47;22.10;;;17.13;;
10769;SDS011;5437;50.852;4.438;2023-02-12T11:07:07;22.73;;;17.10;;
10769;SDS011;5437;50.852;4.438;2023-02-12T11:09:40;23.40;;;17.10;;
10769;SDS011;5437;50.852;4.438;2023-02-12T11:15:14;23.23;;;16.80;;
10769;SDS011;5437;50.852;4.438;2023-02-12T11:17:42;22.42;;;16.15;;
10769;SDS011;5437;50.852;4.438;2023-02-12T11:22:48;18.30;;;14.82;;
10769;SDS011;5437;50.852;4.438;2023-02-12T11:25:15;18.65;;;14.45;;
10769;SDS011;5437;50.852;4.438;2023-02-12T11:27:41;19.52;;;14.52;;
10769;SDS011;5437;50.852;4.438;2023-02-12T11:32:37;21.15;;;14.80;;
10769;SDS011;5437;50.852;4.438;2023-02-12T11:35:11;18.13;;;14.50;;
10769;SDS011;5437;50.852;4.438;2023-02-12T11:37:41;19.85;;;14.30;;
10769;SDS011;5437;50.852;4.438;2023-02-12T11:40:14;20.30;;;14.85;;
10769;SDS011;5437;50.852;4.438;2023-02-12T11:42:40;17.70;;;14.32;;
10769;SDS011;5437;50.852;4.438;2023-02-12T11:45:16;19.33;;;15.00;;
10769;SDS011;5437;50.852;4.438;2023-02-12T11:47:42;17.80;;;13.77;;
10769;SDS011;5437;50.852;4.438;2023-02-12T11:50:27;17.33;;;13.85;;
10769;SDS011;5437;50.852;4.438;2023-02-12T11:52:55;20.70;;;14.98;;
10769;SDS011;5437;50.852;4.438;2023-02-12T11:55:23;18.73;;;14.02;;
10769;SDS011;5437;50.852;4.438;2023-02-12T11:57:51;18.50;;;14.32;;
10769;SDS011;5437;50.852;4.438;2023-02-12T12:00:36;17.80;;;14.18;;
10769;SDS011;5437;50.852;4.438;2023-02-12T12:03:08;17.58;;;14.43;;
10769;SDS011;5437;50.852;4.438;2023-02-12T12:05:37;18.73;;;14.45;;
10769;SDS011;5437;50.852;4.438;2023-02-12T12:08:06;18.83;;;13.38;;
10769;SDS011;5437;50.852;4.438;2023-02-12T12:10:50;16.73;;;13.65;;
10769;SDS011;5437;50.852;4.438;2023-02-12T12:13:20;20.40;;;14.48;;
10769;SDS011;5437;50.852;4.438;2023-02-12T12:15:49;17.52;;;13.63;;
10769;SDS011;5437;50.852;4.438;2023-02-12T12:21:33;17.40;;;12.90;;
10769;SDS011;5437;50.852;4.438;2023-02-12T12:24:02;15.48;;;12.38;;
10769;SDS011;5437;50.852;4.438;2023-02-12T12:26:30;13.45;;;11.35;;
10769;SDS011;5437;50.852;4.438;2023-02-12T12:29:03;14.40;;;11.25;;
10769;SDS011;5437;50.852;4.438;2023-02-12T12:33:59;14.52;;;11.52;;
10769;SDS011;5437;50.852;4.438;2023-02-12T12:41:42;15.23;;;12.02;;
10769;SDS011;5437;50.852;4.438;2023-02-12T12:46:53;15.10;;;11.40;;
10769;SDS011;5437;50.852;4.438;2023-02-12T12:52:38;13.80;;;12.20;;
10769;SDS011;5437;50.852;4.438;2023-02-12T12:54:47;15.95;;;12.45;;
10769;SDS011;5437;50.852;4.438;2023-02-12T12:57:34;15.55;;;12.30;;
10769;SDS011;5437;50.852;4.438;2023-02-12T13:15:44;17.95;;;13.85;;
10769;SDS011;5437;50.852;4.438;2023-02-12T13:18:16;21.17;;;14.80;;
10769;SDS011;5437;50.852;4.438;2023-02-12T13:23:19;19.65;;;13.98;;
10769;SDS011;5437;50.852;4.438;2023-02-12T13:28:28;19.73;;;14.57;;
10769;SDS011;5437;50.852;4.438;2023-02-12T13:30:56;19.95;;;15.57;;
10769;SDS011;5437;50.852;4.438;2023-02-12T13:33:56;20.63;;;14.27;;
10769;SDS011;5437;50.852;4.438;2023-02-12T13:36:16;19.85;;;14.35;;
10769;SDS011;5437;50.852;4.438;2023-02-12T13:41:19;18.65;;;13.95;;
10769;SDS011;5437;50.852;4.438;2023-02-12T13:51:28;19.90;;;14.85;;
10769;SDS011;5437;50.852;4.438;2023-02-12T13:56:50;22.45;;;16.40;;
10769;SDS011;5437;50.852;4.438;2023-02-12T13:59:38;22.27;;;15.95;;
10769;SDS011;5437;50.852;4.438;2023-02-12T14:05:48;22.42;;;16.10;;
10769;SDS011;5437;50.852;4.438;2023-02-12T14:07:46;23.38;;;17.00;;
10769;SDS011;5437;50.852;4.438;2023-02-12T14:10:19;22.02;;;16.20;;
10769;SDS011;5437;50.852;4.438;2023-02-12T14:12:46;22.90;;;15.98;;
10769;SDS011;5437;50.852;4.438;2023-02-12T14:20:33;23.55;;;16.10;;
10769;SDS011;5437;50.852;4.438;2023-02-12T14:23:01;21.90;;;15.32;;
10769;SDS011;5437;50.852;4.438;2023-02-12T14:25:32;23.15;;;16.52;;
10769;SDS011;5437;50.852;4.438;2023-02-12T14:28:22;21.27;;;15.20;;
10769;SDS011;5437;50.852;4.438;2023-02-12T14:33:39;20.38;;;14.95;;
10769;SDS011;5437;50.852;4.438;2023-02-12T14:36:12;21.67;;;15.38;;
10769;SDS011;5437;50.852;4.438;2023-02-12T14:41:15;21.33;;;15.30;;
10769;SDS011;5437;50.852;4.438;2023-02-12T14:46:45;21.70;;;15.82;;
10769;SDS011;5437;50.852;4.438;2023-02-12T14:52:00;19.67;;;15.07;;
10769;SDS011;5437;50.852;4.438;2023-02-12T14:57:46;19.00;;;15.15;;
10769;SDS011;5437;50.852;4.438;2023-02-12T14:59:47;20.17;;;15.30;;
10769;SDS011;5437;50.852;4.438;2023-02-12T15:02:19;21.02;;;15.32;;
10769;SDS011;5437;50.852;4.438;2023-02-12T15:04:47;22.15;;;15.38;;
10769;SDS011;5437;50.852;4.438;2023-02-12T15:15:51;21.50;;;15.73;;
10769;SDS011;5437;50.852;4.438;2023-02-12T15:23:41;21.83;;;15.95;;
10769;SDS011;5437;50.852;4.438;2023-02-12T15:26:15;21.55;;;16.08;;
10769;SDS011;5437;50.852;4.438;2023-02-12T15:28:42;20.20;;;15.73;;
10769;SDS011;5437;50.852;4.438;2023-02-12T15:31:13;21.10;;;15.73;;
10769;SDS011;5437;50.852;4.438;2023-02-12T15:33:41;20.40;;;16.02;;
10769;SDS011;5437;50.852;4.438;2023-02-12T15:36:09;24.75;;;15.93;;
10769;SDS011;5437;50.852;4.438;2023-02-12T15:38:36;22.13;;;16.33;;
10769;SDS011;5437;50.852;4.438;2023-02-12T15:41:05;23.58;;;16.52;;
10769;SDS011;5437;50.852;4.438;2023-02-12T15:43:32;18.05;;;14.88;;
10769;SDS011;5437;50.852;4.438;2023-02-12T15:46:02;21.67;;;15.85;;
10769;SDS011;5437;50.852;4.438;2023-02-12T15:48:31;23.70;;;16.98;;
10769;SDS011;5437;50.852;4.438;2023-02-12T15:53:43;22.85;;;16.98;;
10769;SDS011;5437;50.852;4.438;2023-02-12T15:56:11;22.75;;;16.92;;
10769;SDS011;5437;50.852;4.438;2023-02-12T15:58:41;23.80;;;17.25;;
10769;SDS011;5437;50.852;4.438;2023-02-12T16:01:12;23.52;;;16.58;;
10769;SDS011;5437;50.852;4.438;2023-02-12T16:03:39;25.05;;;16.67;;
10769;SDS011;5437;50.852;4.438;2023-02-12T16:08:35;25.25;;;17.52;;
10769;SDS011;5437;50.852;4.438;2023-02-12T16:11:02;25.42;;;17.77;;
10769;SDS011;5437;50.852;4.438;2023-02-12T16:13:37;26.52;;;17.73;;
10769;SDS011;5437;50.852;4.438;2023-02-12T16:18:36;24.85;;;17.55;;
10769;SDS011;5437;50.852;4.438;2023-02-12T16:21:10;27.27;;;18.67;;
10769;SDS011;5437;50.852;4.438;2023-02-12T16:23:37;25.65;;;18.25;;
10769;SDS011;5437;50.852;4.438;2023-02-12T16:26:03;28.10;;;18.33;;
10769;SDS011;5437;50.852;4.438;2023-02-12T16:28:30;26.05;;;18.73;;
10769;SDS011;5437;50.852;4.438;2023-02-12T16:31:09;26.30;;;18.70;;
10769;SDS011;5437;50.852;4.438;2023-02-12T16:38:40;25.30;;;18.48;;
10769;SDS011;5437;50.852;4.438;2023-02-12T16:43:49;26.50;;;19.10;;
10769;SDS011;5437;50.852;4.438;2023-02-12T16:46:15;28.83;;;19.55;;
10769;SDS011;5437;50.852;4.438;2023-02-12T16:48:46;26.52;;;19.52;;
10769;SDS011;5437;50.852;4.438;2023-02-12T16:51:46;27.33;;;19.70;;
10769;SDS011;5437;50.852;4.438;2023-02-12T16:54:23;28.35;;;19.30;;
10769;SDS011;5437;50.852;4.438;2023-02-12T16:56:50;32.30;;;21.08;;
10769;SDS011;5437;50.852;4.438;2023-02-12T16:59:16;30.20;;;20.83;;
10769;SDS011;5437;50.852;4.438;2023-02-12T17:01:43;28.25;;;19.85;;
10769;SDS011;5437;50.852;4.438;2023-02-12T17:04:20;29.23;;;19.42;;
10769;SDS011;5437;50.852;4.438;2023-02-12T17:06:47;27.90;;;18.80;;
10769;SDS011;5437;50.852;4.438;2023-02-12T17:09:13;29.67;;;21.05;;
10769;SDS011;5437;50.852;4.438;2023-02-12T17:11:39;30.08;;;20.77;;
10769;SDS011;5437;50.852;4.438;2023-02-12T17:14:08;27.88;;;20.23;;
10769;SDS011;5437;50.852;4.438;2023-02-12T17:16:35;29.25;;;20.63;;
10769;SDS011;5437;50.852;4.438;2023-02-12T17:19:01;28.45;;;21.00;;
10769;SDS011;5437;50.852;4.438;2023-02-12T17:21:31;28.10;;;20.20;;
10769;SDS011;5437;50.852;4.438;2023-02-12T17:24:02;31.35;;;24.20;;
10769;SDS011;5437;50.852;4.438;2023-02-12T17:26:28;30.00;;;22.00;;
10769;SDS011;5437;50.852;4.438;2023-02-12T17:28:54;28.42;;;21.25;;
10769;SDS011;5437;50.852;4.438;2023-02-12T17:31:29;33.67;;;22.95;;
10769;SDS011;5437;50.852;4.438;2023-02-12T17:33:55;32.22;;;21.42;;
10769;SDS011;5437;50.852;4.438;2023-02-12T17:36:21;31.85;;;21.52;;
10769;SDS011;5437;50.852;4.438;2023-02-12T17:38:48;31.10;;;21.48;;
10769;SDS011;5437;50.852;4.438;2023-02-12T17:41:15;29.50;;;20.58;;
10769;SDS011;5437;50.852;4.438;2023-02-12T17:43:41;29.65;;;21.55;;
10769;SDS011;5437;50.852;4.438;2023-02-12T17:46:08;29.10;;;21.15;;
10769;SDS011;5437;50.852;4.438;2023-02-12T17:48:34;30.63;;;21.02;;